Little Indian, Illinois
Current Conditions -  °F | °C
As of 7:55 AM on Monday 22 Dec 2014 (Local Time) from KIJX Reporting Station
Light Rain Light Rain  
Wind Chill: -1°   Ceiling: 2400
Heat Index:   Visibility: 2mi
Dew Point:   Wind: 13mph
Humidity: 92%   Direction: 110°ESE
Pressure: 29.77"   Gusts: NA
Location:  39.9268°N, 90.2187°W
Report Text: KIJX 221355Z AUTO 11011KT 2SM -RA SCT006 BKN024 OVC048 03/02 A2977 RMK AO2 P0005 T00340022
Loading
Personal Weather Stations






























Interactive Weather Map New forecast layout! Learn more

10-Day Weather Forecast

Advertisements
Track Severe Weather on mobile